Time;durP1;ratioP1;P1;durP2;ratioP2;P2;SDS_P1;SDS_P2;PMS_P1;PMS_P2;Temp;Humidity;BMP_temperature;BMP_pressure;BME280_temperature;BME280_humidity;BME280_pressure;Samples;Min_cycle;Max_cycle;Signal;HPM_P1;HPM_P2
2022/12/05 00:02:01;;;;;;;;;;;2.60;99.90;;;;;;5026666;28;19913;-63
2022/12/05 00:04:29;;;;;;;;;;;2.50;99.90;;;;;;5015806;28;19932;-64
2022/12/05 00:06:54;;;;;;;;;;;2.60;99.90;;;;;;5032311;28;20297;-64
2022/12/05 00:09:20;;;;;;;;;;;2.60;99.90;;;;;;5033250;28;19924;-65
2022/12/05 00:11:46;;;;;;;;;;;2.60;99.90;;;;;;5021970;28;19912;-64
2022/12/05 00:14:11;;;;;;;;;;;2.60;99.90;;;;;;5014177;28;19912;-64
2022/12/05 00:16:39;;;;;;;;;;;2.50;99.90;;;;;;5031959;28;19945;-64
2022/12/05 00:19:06;;;;;;;;;;;2.60;99.90;;;;;;5032917;28;19925;-64
2022/12/05 00:21:33;;;;;;;;;;;2.60;99.90;;;;;;5031317;28;19975;-63
2022/12/05 00:23:59;;;;;;;;;;;2.60;99.90;;;;;;5030867;28;19917;-64
2022/12/05 00:26:24;;;;;;;;;;;2.60;99.90;;;;;;5030257;28;19913;-64
2022/12/05 00:28:51;;;;;;;;;;;2.70;99.90;;;;;;5032441;28;19924;-64
2022/12/05 00:31:20;;;;;;;;;;;2.60;99.90;;;;;;5031744;28;20247;-64
2022/12/05 00:33:46;;;;;;;;;;;2.60;99.90;;;;;;5030375;28;19913;-64
2022/12/05 00:36:13;;;;;;;;;;;2.60;99.90;;;;;;5026235;28;19967;-64
2022/12/05 00:38:38;;;;;;;;;;;2.60;99.90;;;;;;5029531;28;19920;-64
2022/12/05 00:41:05;;;;;;;;;;;2.60;99.90;;;;;;5032028;28;20247;-65
2022/12/05 00:43:31;;;;;;;;;;;2.60;99.90;;;;;;5012710;28;19952;-64
2022/12/05 00:46:01;;;;;;;;;;;2.60;99.90;;;;;;5015538;28;20417;-64
2022/12/05 00:48:27;;;;;;;;;;;2.60;99.90;;;;;;5025979;28;19913;-65
2022/12/05 00:50:59;;;;;;;;;;;2.60;99.90;;;;;;5032116;28;19913;-64
2022/12/05 00:53:24;;;;;;;;;;;2.60;99.90;;;;;;5027309;28;19909;-64
2022/12/05 00:55:50;;;;;;;;;;;2.60;99.90;;;;;;5025011;28;20293;-65
2022/12/05 00:58:15;;;;;;;;;;;2.60;99.90;;;;;;5030071;28;20321;-65
2022/12/05 01:00:41;;;;;;;;;;;2.60;99.90;;;;;;5025655;28;19968;-64
2022/12/05 01:03:07;;;;;;;;;;;2.60;99.90;;;;;;5027752;28;19909;-64
2022/12/05 01:05:33;;;;;;;;;;;2.60;99.90;;;;;;5030845;28;20277;-64
2022/12/05 01:07:58;;;;;;;;;;;2.70;99.90;;;;;;5000453;28;19923;-64
2022/12/05 01:10:24;;;;;;;;;;;2.70;99.90;;;;;;5030629;28;19913;-65
2022/12/05 01:12:49;;;;;;;;;;;2.70;99.90;;;;;;5030924;28;19925;-64
2022/12/05 01:15:15;;;;;;;;;;;2.70;99.90;;;;;;5029663;28;19955;-64
2022/12/05 01:17:42;;;;;;;;;;;2.70;99.90;;;;;;5030114;28;19913;-64
2022/12/05 01:20:08;;;;;;;;;;;2.70;99.90;;;;;;5030684;28;19913;-64
2022/12/05 01:22:35;;;;;;;;;;;2.70;99.90;;;;;;5030621;28;20463;-65
2022/12/05 01:25:01;;;;;;;;;;;2.70;99.90;;;;;;5029145;28;19916;-64
2022/12/05 01:27:27;;;;;;;;;;;2.70;99.90;;;;;;5030664;28;19913;-64
2022/12/05 01:29:53;;;;;;;;;;;2.70;99.90;;;;;;5007236;28;19913;-65
2022/12/05 01:32:18;;;;;;;;;;;2.70;99.90;;;;;;5030752;28;19959;-65
2022/12/05 01:34:44;;;;;;;;;;;2.70;99.90;;;;;;5027918;28;19909;-64
2022/12/05 01:37:10;;;;;;;;;;;2.70;99.90;;;;;;5028437;28;19921;-64
2022/12/05 01:39:36;;;;;;;;;;;2.70;99.90;;;;;;5024271;28;20322;-64
2022/12/05 01:42:01;;;;;;;;;;;2.70;99.90;;;;;;5028746;28;19923;-64
2022/12/05 01:44:27;;;;;;;;;;;2.70;99.90;;;;;;5012874;28;19999;-64
2022/12/05 01:46:52;;;;;;;;;;;2.70;99.90;;;;;;5029681;28;20597;-65
2022/12/05 01:49:20;;;;;;;;;;;2.70;99.90;;;;;;5030091;28;19970;-65
2022/12/05 01:51:46;;;;;;;;;;;2.70;99.90;;;;;;5030713;28;19920;-65
2022/12/05 01:54:11;;;;;;;;;;;2.70;99.90;;;;;;5023042;28;20250;-65
2022/12/05 01:56:37;;;;;;;;;;;2.80;99.90;;;;;;5028569;28;19972;-65
2022/12/05 01:59:03;;;;;;;;;;;2.80;99.90;;;;;;5024817;28;20249;-64
2022/12/05 02:01:29;;;;;;;;;;;2.80;99.90;;;;;;5022970;28;19913;-65
2022/12/05 02:03:55;;;;;;;;;;;2.80;99.90;;;;;;5030454;28;19913;-64
2022/12/05 02:06:20;;;;;;;;;;;2.70;99.90;;;;;;5029617;28;19916;-64
2022/12/05 02:08:46;;;;;;;;;;;2.70;99.90;;;;;;5023818;28;19928;-64
2022/12/05 02:11:12;;;;;;;;;;;2.80;99.90;;;;;;5028571;28;19939;-64
2022/12/05 02:13:49;;;;;;;;;;;2.80;99.90;;;;;;5011086;28;19928;-65
2022/12/05 02:16:27;;;;;;;;;;;2.80;99.90;;;;;;5013093;28;20216;-64
2022/12/05 02:18:56;;;;;;;;;;;2.70;99.90;;;;;;5028802;28;19991;-64
2022/12/05 02:21:37;;;;;;;;;;;2.70;99.90;;;;;;5025927;28;20352;-64
2022/12/05 02:24:18;;;;;;;;;;;2.80;99.90;;;;;;5029246;28;19913;-64
2022/12/05 02:27:03;;;;;;;;;;;2.80;99.90;;;;;;5029210;28;19909;-65
2022/12/05 02:29:28;;;;;;;;;;;2.80;99.90;;;;;;5030060;28;19917;-64
2022/12/05 02:32:14;;;;;;;;;;;2.80;99.90;;;;;;5024434;28;20326;-64
2022/12/05 02:34:59;;;;;;;;;;;2.70;99.90;;;;;;5026648;28;19917;-64
2022/12/05 02:37:33;;;;;;;;;;;2.70;99.90;;;;;;5028728;28;20000;-65
2022/12/05 02:40:04;;;;;;;;;;;2.80;99.90;;;;;;5011838;28;20333;-64
2022/12/05 02:42:37;;;;;;;;;;;2.80;99.90;;;;;;5030267;28;20007;-65
2022/12/05 02:45:06;;;;;;;;;;;2.70;99.90;;;;;;5026980;28;20527;-65
2022/12/05 02:47:32;;;;;;;;;;;2.70;99.90;;;;;;5025030;28;20261;-64
2022/12/05 02:49:58;;;;;;;;;;;2.70;99.90;;;;;;5021582;28;19929;-64
2022/12/05 02:52:23;;;;;;;;;;;2.80;99.90;;;;;;5028247;28;20137;-65
2022/12/05 02:54:49;;;;;;;;;;;2.70;99.90;;;;;;5029114;28;20039;-65
2022/12/05 02:57:14;;;;;;;;;;;2.80;99.90;;;;;;5028748;28;20476;-65
2022/12/05 02:59:40;;;;;;;;;;;2.80;99.90;;;;;;5027976;28;20027;-64
2022/12/05 03:02:21;;;;;;;;;;;2.80;99.90;;;;;;5029461;28;20331;-65
2022/12/05 03:04:46;;;;;;;;;;;2.80;99.90;;;;;;5026113;28;19917;-65
2022/12/05 03:07:12;;;;;;;;;;;2.80;99.90;;;;;;5028632;28;19913;-66
2022/12/05 03:09:44;;;;;;;;;;;2.80;99.90;;;;;;5026101;28;19917;-65
2022/12/05 03:12:24;;;;;;;;;;;2.80;99.90;;;;;;5029708;28;19917;-64
2022/12/05 03:14:56;;;;;;;;;;;2.80;99.90;;;;;;5021582;28;19970;-64
2022/12/05 03:17:24;;;;;;;;;;;2.80;99.90;;;;;;5028908;28;19913;-64
2022/12/05 03:19:58;;;;;;;;;;;2.80;99.90;;;;;;5008037;28;20350;-64
2022/12/05 03:22:27;;;;;;;;;;;2.80;99.90;;;;;;5022823;28;19913;-65
2022/12/05 03:24:52;;;;;;;;;;;2.80;99.90;;;;;;5011806;28;19917;-65
2022/12/05 03:27:37;;;;;;;;;;;2.80;99.90;;;;;;5029742;28;19913;-66
2022/12/05 03:30:07;;;;;;;;;;;2.80;99.90;;;;;;5033226;28;19917;-65
2022/12/05 03:32:36;;;;;;;;;;;2.80;99.90;;;;;;5026047;28;19913;-65
2022/12/05 03:35:05;;;;;;;;;;;2.80;99.90;;;;;;5032351;28;19940;-65
2022/12/05 03:38:00;;;;;;;;;;;2.80;99.90;;;;;;5033007;28;20319;-65
2022/12/05 03:40:33;;;;;;;;;;;2.90;99.90;;;;;;5026363;28;19952;-65
2022/12/05 03:43:15;;;;;;;;;;;2.80;99.90;;;;;;5032354;28;19909;-64
2022/12/05 03:45:48;;;;;;;;;;;2.80;99.90;;;;;;5033168;28;19921;-64
2022/12/05 03:48:17;;;;;;;;;;;2.80;99.90;;;;;;5029533;28;19996;-64
2022/12/05 03:50:43;;;;;;;;;;;2.90;99.90;;;;;;5019628;28;19913;-65
2022/12/05 03:53:10;;;;;;;;;;;2.80;99.90;;;;;;5032780;28;19970;-65
2022/12/05 03:55:36;;;;;;;;;;;2.80;99.90;;;;;;5021399;28;19928;-65
2022/12/05 03:58:05;;;;;;;;;;;2.90;99.90;;;;;;5012141;28;19913;-66
2022/12/05 04:00:31;;;;;;;;;;;2.90;99.90;;;;;;5030816;28;19928;-65
2022/12/05 04:02:59;;;;;;;;;;;2.90;99.90;;;;;;5031902;28;19944;-65
2022/12/05 04:05:25;;;;;;;;;;;2.90;99.90;;;;;;5027492;28;19916;-65
2022/12/05 04:08:10;;;;;;;;;;;2.80;99.90;;;;;;5030452;28;19927;-65
2022/12/05 04:10:47;;;;;;;;;;;2.80;99.90;;;;;;5032487;28;19909;-65
2022/12/05 04:13:17;;;;;;;;;;;2.80;99.90;;;;;;5031633;28;19913;-65
2022/12/05 04:18:32;;;;;;;;;;;2.80;99.90;;;;;;5031731;28;19924;-65
2022/12/05 04:23:42;;;;;;;;;;;2.90;99.90;;;;;;5014022;28;20330;-65
2022/12/05 04:26:07;;;;;;;;;;;2.80;99.90;;;;;;5031355;28;19989;-65
2022/12/05 04:28:35;;;;;;;;;;;2.80;99.90;;;;;;5032521;28;19978;-65
2022/12/05 04:31:12;;;;;;;;;;;2.80;99.90;;;;;;5020489;28;19913;-65
2022/12/05 04:33:45;;;;;;;;;;;2.80;99.90;;;;;;5015265;28;19920;-65
2022/12/05 04:36:11;;;;;;;;;;;2.80;99.90;;;;;;5031455;28;19913;-65
2022/12/05 04:38:47;;;;;;;;;;;2.80;99.90;;;;;;5030194;28;20020;-64
2022/12/05 04:41:15;;;;;;;;;;;2.80;99.90;;;;;;5030991;28;19913;-65
2022/12/05 04:43:40;;;;;;;;;;;2.80;99.90;;;;;;5027569;28;19917;-64
2022/12/05 04:46:08;;;;;;;;;;;2.80;99.90;;;;;;5031189;28;19927;-65
2022/12/05 04:48:34;;;;;;;;;;;2.80;99.90;;;;;;5029423;28;19913;-65
2022/12/05 04:50:59;;;;;;;;;;;2.70;99.90;;;;;;5031073;28;20052;-64
2022/12/05 04:53:26;;;;;;;;;;;2.70;99.90;;;;;;5029414;28;19936;-64
2022/12/05 04:55:52;;;;;;;;;;;2.70;99.90;;;;;;5014987;28;19966;-64
2022/12/05 04:58:21;;;;;;;;;;;2.70;99.90;;;;;;5031941;28;20364;-64
2022/12/05 05:00:56;;;;;;;;;;;2.70;99.90;;;;;;5022051;28;19913;-64
2022/12/05 05:03:31;;;;;;;;;;;2.70;99.90;;;;;;5025661;28;19924;-64
2022/12/05 05:05:56;;;;;;;;;;;2.60;99.90;;;;;;5031184;28;19943;-64
2022/12/05 05:08:27;;;;;;;;;;;2.60;99.90;;;;;;5029793;28;19963;-64
2022/12/05 05:11:31;;;;;;;;;;;2.60;99.90;;;;;;5031802;28;19920;-64
2022/12/05 05:13:57;;;;;;;;;;;2.60;99.90;;;;;;5024958;28;19913;-65
2022/12/05 05:16:23;;;;;;;;;;;2.50;99.90;;;;;;5028500;28;19928;-65
2022/12/05 05:18:49;;;;;;;;;;;2.50;99.90;;;;;;5009321;28;19931;-65
2022/12/05 05:21:15;;;;;;;;;;;2.50;99.90;;;;;;5013878;28;19913;-65
2022/12/05 05:23:41;;;;;;;;;;;2.50;99.90;;;;;;5025080;28;19923;-65
2022/12/05 05:26:06;;;;;;;;;;;2.40;99.90;;;;;;5029646;28;19916;-65
2022/12/05 05:28:32;;;;;;;;;;;2.40;99.90;;;;;;5030373;28;19913;-65
2022/12/05 05:31:02;;;;;;;;;;;2.40;99.90;;;;;;5029644;28;19975;-64
2022/12/05 05:33:27;;;;;;;;;;;2.30;99.90;;;;;;5013376;28;19913;-64
2022/12/05 05:35:54;;;;;;;;;;;2.30;99.90;;;;;;5028764;28;19923;-64
2022/12/05 05:38:20;;;;;;;;;;;2.30;99.90;;;;;;5030037;28;19925;-65
2022/12/05 05:40:45;;;;;;;;;;;2.30;99.90;;;;;;5030083;28;20478;-65
2022/12/05 05:43:11;;;;;;;;;;;2.30;99.90;;;;;;5025955;28;19913;-64
2022/12/05 05:45:37;;;;;;;;;;;2.30;99.90;;;;;;5028886;28;19967;-65
2022/12/05 05:48:02;;;;;;;;;;;2.30;99.90;;;;;;5026782;28;19913;-64
2022/12/05 05:50:28;;;;;;;;;;;2.30;99.90;;;;;;5029517;28;20278;-64
2022/12/05 05:52:54;;;;;;;;;;;2.20;99.90;;;;;;5027712;28;20357;-64
2022/12/05 05:55:20;;;;;;;;;;;2.20;99.90;;;;;;5030603;28;20374;-65
2022/12/05 05:57:46;;;;;;;;;;;2.20;99.90;;;;;;5029295;28;19944;-65
2022/12/05 06:00:12;;;;;;;;;;;2.20;99.90;;;;;;5023881;28;20394;-65
2022/12/05 06:02:38;;;;;;;;;;;2.20;99.90;;;;;;5030166;28;19924;-65
2022/12/05 06:05:05;;;;;;;;;;;2.20;99.90;;;;;;5029255;28;20665;-65
2022/12/05 06:07:30;;;;;;;;;;;2.10;99.90;;;;;;5030217;28;19921;-66
2022/12/05 06:09:56;;;;;;;;;;;2.10;99.90;;;;;;5029848;28;19990;-65
2022/12/05 06:12:21;;;;;;;;;;;2.10;99.90;;;;;;5028964;28;19923;-65
2022/12/05 06:14:47;;;;;;;;;;;2.10;99.90;;;;;;5030045;28;19913;-65
2022/12/05 06:17:13;;;;;;;;;;;2.10;99.90;;;;;;5029653;28;19952;-65
2022/12/05 06:19:39;;;;;;;;;;;2.10;99.90;;;;;;5030380;28;19948;-67
2022/12/05 06:22:04;;;;;;;;;;;2.10;99.90;;;;;;5022767;28;19913;-66
2022/12/05 06:24:30;;;;;;;;;;;2.10;99.90;;;;;;5025901;28;20015;-66
2022/12/05 06:26:56;;;;;;;;;;;2.10;99.90;;;;;;5027610;28;20285;-65
2022/12/05 06:29:21;;;;;;;;;;;2.10;99.90;;;;;;5028013;28;20400;-65
2022/12/05 06:31:47;;;;;;;;;;;2.10;99.90;;;;;;5029244;28;20035;-67
2022/12/05 06:34:12;;;;;;;;;;;2.10;99.90;;;;;;5030092;28;19913;-67
2022/12/05 06:36:38;;;;;;;;;;;2.10;99.90;;;;;;5024018;28;19917;-66
2022/12/05 06:39:04;;;;;;;;;;;2.10;99.90;;;;;;5028674;28;20338;-65
2022/12/05 06:41:30;;;;;;;;;;;2.10;99.90;;;;;;5029391;28;19971;-65
2022/12/05 06:43:56;;;;;;;;;;;2.10;99.90;;;;;;5026839;28;20293;-65
2022/12/05 06:46:21;;;;;;;;;;;2.10;99.90;;;;;;5029353;28;20547;-65
2022/12/05 06:48:47;;;;;;;;;;;2.10;99.90;;;;;;5029545;28;20319;-64
2022/12/05 06:51:13;;;;;;;;;;;2.10;99.90;;;;;;5010426;28;19914;-65
2022/12/05 06:53:39;;;;;;;;;;;2.10;99.90;;;;;;5027051;28;19909;-65
2022/12/05 06:56:10;;;;;;;;;;;2.10;99.90;;;;;;5029598;28;19924;-65
2022/12/05 06:58:36;;;;;;;;;;;2.10;99.90;;;;;;5028426;28;19913;-66
2022/12/05 07:03:48;;;;;;;;;;;2.10;99.90;;;;;;5028229;28;19991;-64
2022/12/05 07:06:14;;;;;;;;;;;2.10;99.90;;;;;;5028473;28;19922;-65
2022/12/05 07:08:40;;;;;;;;;;;2.10;99.90;;;;;;5026375;28;19928;-65
2022/12/05 07:11:06;;;;;;;;;;;2.20;99.90;;;;;;5025487;28;19909;-65
2022/12/05 07:13:31;;;;;;;;;;;2.10;99.90;;;;;;5029264;28;19952;-65
2022/12/05 07:15:57;;;;;;;;;;;2.10;99.90;;;;;;5027915;28;19952;-65
2022/12/05 07:18:23;;;;;;;;;;;2.10;99.90;;;;;;5028296;28;19916;-65
2022/12/05 07:20:56;;;;;;;;;;;2.10;99.90;;;;;;5028543;28;20365;-65
2022/12/05 07:23:21;;;;;;;;;;;2.10;99.90;;;;;;5027113;28;19992;-65
2022/12/05 07:25:47;;;;;;;;;;;2.10;99.90;;;;;;5027640;28;20357;-65
2022/12/05 07:28:13;;;;;;;;;;;2.10;99.90;;;;;;5028145;28;20016;-65
2022/12/05 07:30:38;;;;;;;;;;;2.10;99.90;;;;;;5026560;28;19959;-65
2022/12/05 07:33:04;;;;;;;;;;;2.10;99.90;;;;;;5024082;28;19948;-65
2022/12/05 07:35:29;;;;;;;;;;;2.10;99.90;;;;;;5026820;28;20007;-65
2022/12/05 07:37:55;;;;;;;;;;;2.20;99.90;;;;;;5020748;28;19916;-65
2022/12/05 07:40:21;;;;;;;;;;;2.10;99.90;;;;;;5011573;28;19913;-65
2022/12/05 07:42:47;;;;;;;;;;;2.10;99.90;;;;;;5009162;28;20355;-66
2022/12/05 07:45:13;;;;;;;;;;;2.10;99.90;;;;;;5012090;28;19917;-65
2022/12/05 07:47:38;;;;;;;;;;;2.10;99.90;;;;;;5026404;28;19955;-66
2022/12/05 07:50:04;;;;;;;;;;;2.10;99.90;;;;;;5011772;28;19917;-66
2022/12/05 07:52:30;;;;;;;;;;;2.10;99.90;;;;;;5022936;28;19917;-66
2022/12/05 07:54:57;;;;;;;;;;;2.10;99.90;;;;;;5028317;28;19913;-67
2022/12/05 07:57:22;;;;;;;;;;;2.10;99.90;;;;;;5029768;28;19923;-65
2022/12/05 07:59:48;;;;;;;;;;;2.10;99.90;;;;;;5022988;28;19912;-66
2022/12/05 08:02:14;;;;;;;;;;;2.10;99.90;;;;;;5011594;28;19917;-66
2022/12/05 08:04:39;;;;;;;;;;;2.10;99.90;;;;;;5027999;28;19931;-66
2022/12/05 08:07:05;;;;;;;;;;;2.20;99.90;;;;;;5028438;28;19923;-66
2022/12/05 08:09:30;;;;;;;;;;;2.10;99.90;;;;;;5024440;28;20473;-65
2022/12/05 08:11:56;;;;;;;;;;;2.10;99.90;;;;;;5026544;28;20286;-65
2022/12/05 08:14:22;;;;;;;;;;;2.10;99.90;;;;;;5025467;28;19943;-66
2022/12/05 08:16:48;;;;;;;;;;;2.10;99.90;;;;;;5032288;28;19995;-66
2022/12/05 08:19:15;;;;;;;;;;;2.10;99.90;;;;;;5033162;28;20013;-66
2022/12/05 08:21:42;;;;;;;;;;;2.10;99.90;;;;;;5025755;28;19928;-66
2022/12/05 08:24:08;;;;;;;;;;;2.10;99.90;;;;;;5027667;28;19920;-66
2022/12/05 08:26:34;;;;;;;;;;;2.10;99.90;;;;;;5030859;28;20223;-67
2022/12/05 08:29:01;;;;;;;;;;;2.10;99.90;;;;;;5011804;28;19913;-66
2022/12/05 08:31:30;;;;;;;;;;;2.20;99.90;;;;;;5016207;28;19916;-66
2022/12/05 08:33:56;;;;;;;;;;;2.10;99.90;;;;;;5013316;28;19917;-66
2022/12/05 08:36:23;;;;;;;;;;;2.20;99.90;;;;;;5026141;28;20354;-66
2022/12/05 08:38:54;;;;;;;;;;;2.20;99.90;;;;;;5012028;28;20011;-66
2022/12/05 08:41:19;;;;;;;;;;;2.20;99.90;;;;;;5026294;28;20149;-65
2022/12/05 08:43:45;;;;;;;;;;;2.20;99.90;;;;;;5028689;28;20073;-65
2022/12/05 08:46:11;;;;;;;;;;;2.20;99.90;;;;;;5011266;28;19921;-65
2022/12/05 08:48:36;;;;;;;;;;;2.20;99.90;;;;;;5011750;28;19921;-66
2022/12/05 08:51:06;;;;;;;;;;;2.30;99.90;;;;;;5029923;28;19944;-66
2022/12/05 08:53:34;;;;;;;;;;;2.30;99.90;;;;;;5031008;28;19913;-67
2022/12/05 08:56:01;;;;;;;;;;;2.30;99.90;;;;;;5031855;28;20350;-66
2022/12/05 08:58:28;;;;;;;;;;;2.30;99.90;;;;;;5029318;28;19932;-66
2022/12/05 09:00:54;;;;;;;;;;;2.30;99.90;;;;;;5004391;28;19913;-67
2022/12/05 09:03:20;;;;;;;;;;;2.30;99.90;;;;;;5031731;28;19913;-67
2022/12/05 09:05:45;;;;;;;;;;;2.30;99.90;;;;;;5029916;28;20350;-66
2022/12/05 09:08:11;;;;;;;;;;;2.30;99.90;;;;;;5030729;28;19935;-67
2022/12/05 09:10:37;;;;;;;;;;;2.30;99.90;;;;;;5031023;28;19975;-67
2022/12/05 09:13:02;;;;;;;;;;;2.30;99.90;;;;;;5030685;28;19924;-69
2022/12/05 09:15:28;;;;;;;;;;;2.30;99.90;;;;;;5025983;28;20386;-67
2022/12/05 09:17:53;;;;;;;;;;;2.30;99.90;;;;;;5030145;28;20472;-67
2022/12/05 09:20:19;;;;;;;;;;;2.30;99.90;;;;;;5027005;28;20386;-68
2022/12/05 09:22:45;;;;;;;;;;;2.20;99.90;;;;;;5029345;28;20353;-67
2022/12/05 09:25:10;;;;;;;;;;;2.30;99.90;;;;;;5028458;28;20004;-67
2022/12/05 09:27:36;;;;;;;;;;;2.30;99.90;;;;;;5028536;28;19964;-66
2022/12/05 09:30:02;;;;;;;;;;;2.30;99.90;;;;;;5030179;28;19912;-67
2022/12/05 09:32:28;;;;;;;;;;;2.30;99.90;;;;;;5027089;28;19913;-66
2022/12/05 09:34:53;;;;;;;;;;;2.30;99.90;;;;;;5030090;28;19959;-67
2022/12/05 09:37:19;;;;;;;;;;;2.30;99.90;;;;;;5029065;28;20330;-68
2022/12/05 09:39:45;;;;;;;;;;;2.30;99.90;;;;;;5012844;28;19913;-67
2022/12/05 09:42:30;;;;;;;;;;;2.30;99.90;;;;;;5011119;28;19949;-66
2022/12/05 09:45:09;;;;;;;;;;;2.30;99.90;;;;;;5012595;28;19916;-67
2022/12/05 09:47:50;;;;;;;;;;;2.30;99.90;;;;;;5012224;28;19963;-67
2022/12/05 09:50:23;;;;;;;;;;;2.30;99.90;;;;;;5012826;28;19963;-67
2022/12/05 09:53:12;;;;;;;;;;;2.30;99.90;;;;;;5026910;28;19931;-66
2022/12/05 09:55:44;;;;;;;;;;;2.30;99.90;;;;;;5029203;28;20378;-66
2022/12/05 09:58:15;;;;;;;;;;;2.30;99.90;;;;;;5028211;28;19917;-65
2022/12/05 10:00:40;;;;;;;;;;;2.30;99.90;;;;;;5027307;28;19916;-66
2022/12/05 10:03:25;;;;;;;;;;;2.30;99.90;;;;;;5028606;28;19956;-66
2022/12/05 10:06:12;;;;;;;;;;;2.30;99.90;;;;;;5028852;28;20388;-68
2022/12/05 10:08:57;;;;;;;;;;;2.30;99.90;;;;;;5028914;28;19920;-65
2022/12/05 10:11:42;;;;;;;;;;;2.30;99.90;;;;;;5026487;28;19999;-64
2022/12/05 10:14:11;;;;;;;;;;;2.40;99.90;;;;;;5029728;28;20405;-64
2022/12/05 10:16:47;;;;;;;;;;;2.40;99.90;;;;;;5027788;28;19924;-65
2022/12/05 10:19:33;;;;;;;;;;;2.40;99.90;;;;;;5002565;28;20000;-65
2022/12/05 10:22:17;;;;;;;;;;;2.40;99.90;;;;;;5030123;28;20318;-65
2022/12/05 10:24:44;;;;;;;;;;;2.50;99.90;;;;;;5030299;28;19917;-66
2022/12/05 10:27:19;;;;;;;;;;;2.40;99.90;;;;;;5029152;28;19909;-65
2022/12/05 10:29:51;;;;;;;;;;;2.50;99.90;;;;;;5027826;28;19913;-66
2022/12/05 10:32:23;;;;;;;;;;;2.50;99.90;;;;;;5029360;28;19913;-67
2022/12/05 10:34:48;;;;;;;;;;;2.50;99.90;;;;;;5027286;28;19913;-64
2022/12/05 10:37:18;;;;;;;;;;;2.50;99.90;;;;;;5028976;28;19921;-64
2022/12/05 10:39:44;;;;;;;;;;;2.50;99.90;;;;;;5010557;28;20219;-65
2022/12/05 10:42:26;;;;;;;;;;;2.50;99.90;;;;;;5012817;28;19909;-73
2022/12/05 10:44:54;;;;;;;;;;;2.50;99.90;;;;;;5021227;28;19928;-74
2022/12/05 10:47:20;;;;;;;;;;;2.50;99.90;;;;;;5027687;28;19913;-74
2022/12/05 10:49:46;;;;;;;;;;;2.50;99.90;;;;;;5026638;28;19924;-73
2022/12/05 10:52:12;;;;;;;;;;;2.50;99.90;;;;;;5029074;28;19913;-74
2022/12/05 10:54:40;;;;;;;;;;;2.50;99.90;;;;;;5028910;28;19955;-73
2022/12/05 10:57:29;;;;;;;;;;;2.50;99.90;;;;;;5026711;28;20390;-73
2022/12/05 10:59:55;;;;;;;;;;;2.50;99.90;;;;;;5026960;28;19924;-72
2022/12/05 11:02:28;;;;;;;;;;;2.50;99.90;;;;;;5017711;28;20463;-73
2022/12/05 11:04:54;;;;;;;;;;;2.50;99.90;;;;;;5008499;28;19916;-73
2022/12/05 11:07:31;;;;;;;;;;;2.50;99.90;;;;;;5028699;28;19912;-72
2022/12/05 11:09:58;;;;;;;;;;;2.60;99.90;;;;;;5026486;28;19912;-73
2022/12/05 11:12:28;;;;;;;;;;;2.60;99.90;;;;;;5025719;28;19913;-70
2022/12/05 11:14:56;;;;;;;;;;;2.60;99.90;;;;;;5028920;28;19912;-71
2022/12/05 11:17:24;;;;;;;;;;;2.50;99.90;;;;;;5027826;28;19912;-71
2022/12/05 11:19:51;;;;;;;;;;;2.50;99.90;;;;;;5011559;28;19920;-71
2022/12/05 11:22:17;;;;;;;;;;;2.60;99.90;;;;;;5027877;28;19912;-71
2022/12/05 11:24:43;;;;;;;;;;;2.60;99.90;;;;;;5024937;28;20002;-70
2022/12/05 11:27:14;;;;;;;;;;;2.60;99.90;;;;;;5028676;28;19913;-70
2022/12/05 11:29:40;;;;;;;;;;;2.60;99.90;;;;;;5024648;28;19916;-70
2022/12/05 11:32:15;;;;;;;;;;;2.60;99.90;;;;;;5011507;28;19913;-71
2022/12/05 11:34:43;;;;;;;;;;;2.60;99.90;;;;;;5022987;28;19913;-71
2022/12/05 11:37:10;;;;;;;;;;;2.60;99.90;;;;;;5011266;28;19971;-69
2022/12/05 11:39:36;;;;;;;;;;;2.60;99.90;;;;;;5028428;28;19957;-69
2022/12/05 11:42:34;;;;;;;;;;;2.60;99.90;;;;;;5027319;28;19976;-70
2022/12/05 11:45:20;;;;;;;;;;;2.60;99.90;;;;;;5026039;28;19928;-70
2022/12/05 11:47:49;;;;;;;;;;;2.60;99.90;;;;;;5029260;28;19913;-71
2022/12/05 11:50:18;;;;;;;;;;;2.70;99.90;;;;;;5030137;28;20255;-71
2022/12/05 11:52:46;;;;;;;;;;;2.70;99.90;;;;;;4996478;28;19913;-71
2022/12/05 11:55:12;;;;;;;;;;;2.70;99.90;;;;;;5025305;28;20062;-70
2022/12/05 11:57:47;;;;;;;;;;;2.70;99.90;;;;;;5031562;28;20011;-70
2022/12/05 12:00:15;;;;;;;;;;;2.80;99.90;;;;;;5032987;28;20285;-69
2022/12/05 12:02:42;;;;;;;;;;;2.80;99.90;;;;;;5032338;28;20321;-70
2022/12/05 12:05:13;;;;;;;;;;;2.80;99.90;;;;;;5033508;28;19928;-69
2022/12/05 12:07:45;;;;;;;;;;;2.90;99.90;;;;;;5031772;28;19913;-71
2022/12/05 12:10:19;;;;;;;;;;;2.90;99.90;;;;;;5024235;28;19917;-72
2022/12/05 12:12:53;;;;;;;;;;;2.90;99.90;;;;;;5029245;28;19913;-71
2022/12/05 12:15:28;;;;;;;;;;;2.90;99.90;;;;;;5032424;28;19913;-71
2022/12/05 12:18:04;;;;;;;;;;;2.90;99.90;;;;;;5028886;28;19980;-71
2022/12/05 12:20:49;;;;;;;;;;;2.80;99.90;;;;;;5031082;28;19917;-71
2022/12/05 12:23:31;;;;;;;;;;;2.80;99.90;;;;;;5030830;28;19917;-71
2022/12/05 12:26:13;;;;;;;;;;;2.80;99.90;;;;;;5025238;28;19988;-72
2022/12/05 12:28:44;;;;;;;;;;;2.80;99.90;;;;;;5014351;28;20416;-71
2022/12/05 12:31:28;;;;;;;;;;;2.80;99.90;;;;;;5029649;28;19913;-71
2022/12/05 12:33:54;;;;;;;;;;;2.80;99.90;;;;;;5032351;28;19917;-71
2022/12/05 12:36:46;;;;;;;;;;;2.80;99.90;;;;;;5032441;28;19924;-72
2022/12/05 12:39:11;;;;;;;;;;;2.80;99.90;;;;;;5023608;28;19921;-72
2022/12/05 12:41:55;;;;;;;;;;;2.80;99.90;;;;;;5032256;28;20249;-71
2022/12/05 12:44:44;;;;;;;;;;;2.80;99.90;;;;;;5031450;28;19913;-72
2022/12/05 12:47:14;;;;;;;;;;;2.80;99.90;;;;;;4996641;28;20003;-72
2022/12/05 12:49:58;;;;;;;;;;;2.80;99.90;;;;;;5012223;28;20587;-71
2022/12/05 12:52:26;;;;;;;;;;;2.80;99.90;;;;;;5031466;28;19909;-71
2022/12/05 12:54:57;;;;;;;;;;;2.70;99.90;;;;;;5032087;28;19909;-72
2022/12/05 12:57:23;;;;;;;;;;;2.70;99.90;;;;;;5025310;28;19951;-71
2022/12/05 13:00:08;;;;;;;;;;;2.70;99.90;;;;;;5031595;28;20968;-72
2022/12/05 13:02:46;;;;;;;;;;;2.70;99.90;;;;;;5032171;28;19913;-69
2022/12/05 13:05:21;;;;;;;;;;;2.70;99.90;;;;;;5027360;28;19918;-69
2022/12/05 13:07:49;;;;;;;;;;;2.70;99.90;;;;;;5026315;28;19913;-71
2022/12/05 13:10:28;;;;;;;;;;;2.70;99.90;;;;;;5011804;28;19953;-71
2022/12/05 13:12:54;;;;;;;;;;;2.70;99.90;;;;;;5026560;28;19913;-70
2022/12/05 13:15:27;;;;;;;;;;;2.70;99.90;;;;;;5013670;28;19987;-72
2022/12/05 13:17:52;;;;;;;;;;;2.70;99.90;;;;;;5029407;28;19956;-72
2022/12/05 13:20:20;;;;;;;;;;;2.70;99.90;;;;;;4997402;28;20310;-71
2022/12/05 13:22:47;;;;;;;;;;;2.70;99.90;;;;;;5014192;28;19917;-71
2022/12/05 13:25:16;;;;;;;;;;;2.70;99.90;;;;;;5030515;28;19916;-72
2022/12/05 13:27:57;;;;;;;;;;;2.70;99.90;;;;;;5027496;28;19909;-71
2022/12/05 13:30:26;;;;;;;;;;;2.70;99.90;;;;;;5014349;28;20087;-71
2022/12/05 13:32:56;;;;;;;;;;;2.70;99.90;;;;;;5031200;28;19912;-69
2022/12/05 13:43:55;;;;;;;;;;;2.70;99.90;;;;;;5030224;28;20027;-68
2022/12/05 13:46:27;;;;;;;;;;;2.70;99.90;;;;;;5025783;28;20000;-68
2022/12/05 13:48:58;;;;;;;;;;;2.70;99.90;;;;;;5030745;28;19913;-68
2022/12/05 13:51:32;;;;;;;;;;;2.70;99.90;;;;;;5028372;28;19917;-70
2022/12/05 13:54:24;;;;;;;;;;;2.70;99.90;;;;;;5011659;28;20242;-71
2022/12/05 13:56:49;;;;;;;;;;;2.70;99.90;;;;;;5028425;28;19913;-70
2022/12/05 13:59:34;;;;;;;;;;;2.70;99.90;;;;;;5026533;28;19920;-70
2022/12/05 14:01:59;;;;;;;;;;;2.70;99.90;;;;;;5030342;28;20365;-69
2022/12/05 14:04:43;;;;;;;;;;;2.70;99.90;;;;;;5028372;28;19952;-69
2022/12/05 14:07:09;;;;;;;;;;;2.60;99.90;;;;;;5023507;28;20179;-69
2022/12/05 14:09:49;;;;;;;;;;;2.70;99.90;;;;;;4992772;28;19917;-70
2022/12/05 14:12:15;;;;;;;;;;;2.70;99.90;;;;;;5029325;28;19940;-70
2022/12/05 14:14:56;;;;;;;;;;;2.70;99.90;;;;;;5024110;28;19952;-69
2022/12/05 14:17:29;;;;;;;;;;;2.70;99.90;;;;;;5029229;28;19916;-69
2022/12/05 14:20:04;;;;;;;;;;;2.60;99.90;;;;;;5021475;28;19920;-69
2022/12/05 14:22:30;;;;;;;;;;;2.60;99.90;;;;;;5028356;28;20307;-69
2022/12/05 14:24:55;;;;;;;;;;;2.60;99.90;;;;;;5029145;28;19928;-68
2022/12/05 14:27:50;;;;;;;;;;;2.70;99.90;;;;;;5028426;28;19963;-69
2022/12/05 14:30:19;;;;;;;;;;;2.60;99.90;;;;;;5027017;28;19913;-70
2022/12/05 14:32:44;;;;;;;;;;;2.60;99.90;;;;;;5012300;28;19924;-70
2022/12/05 14:35:14;;;;;;;;;;;2.60;99.90;;;;;;5027773;28;19917;-69
2022/12/05 14:37:52;;;;;;;;;;;2.60;99.90;;;;;;5026911;28;19921;-70
2022/12/05 14:40:27;;;;;;;;;;;2.60;99.90;;;;;;5029520;28;20223;-64
2022/12/05 14:42:53;;;;;;;;;;;2.60;99.90;;;;;;5009014;28;19924;-64
2022/12/05 14:45:19;;;;;;;;;;;2.60;99.90;;;;;;5029925;28;20057;-64
2022/12/05 14:47:48;;;;;;;;;;;2.60;99.90;;;;;;5029772;28;19912;-64
2022/12/05 14:50:33;;;;;;;;;;;2.60;99.90;;;;;;5028321;28;19924;-64
2022/12/05 14:53:14;;;;;;;;;;;2.50;99.90;;;;;;5024954;28;20270;-64
2022/12/05 14:56:00;;;;;;;;;;;2.60;99.90;;;;;;5029401;28;20639;-64
2022/12/05 14:58:25;;;;;;;;;;;2.60;99.90;;;;;;5022834;28;19913;-64
2022/12/05 15:00:58;;;;;;;;;;;2.50;99.90;;;;;;5029122;28;20390;-63
2022/12/05 15:03:47;;;;;;;;;;;2.50;99.90;;;;;;5029444;28;19952;-65